Time;durP1;ratioP1;P1;durP2;ratioP2;P2;SDS_P1;SDS_P2;PMS_P1;PMS_P2;Temp;Humidity;BMP_temperature;BMP_pressure;BME280_temperature;BME280_humidity;BME280_pressure;Samples;Min_cycle;Max_cycle;Signal;HPM_P1;HPM_P2
2023/08/08 00:01:03;;;;;;;4.38;2.72;;;;;;;8.77;100.00;94203.16;4989211;28;20054;-64
2023/08/08 00:03:29;;;;;;;4.35;2.88;;;;;;;8.80;100.00;94199.63;4988565;28;20047;-67
2023/08/08 00:05:56;;;;;;;5.55;3.00;;;;;;;8.61;100.00;94205.53;4989573;28;20050;-66
2023/08/08 00:08:23;;;;;;;4.33;2.60;;;;;;;8.73;100.00;94218.81;4990039;28;20038;-64
2023/08/08 00:10:50;;;;;;;4.97;2.80;;;;;;;8.79;100.00;94216.44;4989242;28;20112;-64
2023/08/08 00:13:17;;;;;;;5.70;2.70;;;;;;;8.80;100.00;94207.06;4989621;28;20046;-64
2023/08/08 00:15:44;;;;;;;4.72;2.55;;;;;;;8.80;100.00;94207.84;4989008;28;20047;-67
2023/08/08 00:18:10;;;;;;;5.03;2.85;;;;;;;8.83;100.00;94208.97;4989535;28;20096;-64
2023/08/08 00:20:37;;;;;;;4.73;2.90;;;;;;;8.72;100.00;94213.72;4989909;28;20360;-64
2023/08/08 00:23:04;;;;;;;4.68;3.00;;;;;;;8.75;100.00;94207.44;5007974;28;21472;-64
2023/08/08 00:25:31;;;;;;;6.18;3.35;;;;;;;8.72;100.00;94216.47;5008860;28;20038;-64
2023/08/08 00:27:57;;;;;;;5.65;2.65;;;;;;;8.76;100.00;94215.28;5008656;28;20072;-64
2023/08/08 00:30:24;;;;;;;5.50;2.78;;;;;;;8.76;100.00;94212.53;5009182;28;20058;-68
2023/08/08 00:32:51;;;;;;;4.83;2.80;;;;;;;8.70;100.00;94216.84;5008617;28;20487;-66
2023/08/08 00:35:18;;;;;;;5.32;2.60;;;;;;;8.67;100.00;94214.13;5008012;28;20163;-65
2023/08/08 00:37:44;;;;;;;4.78;2.55;;;;;;;8.67;100.00;94203.19;5008574;28;20049;-65
2023/08/08 00:40:11;;;;;;;5.25;2.80;;;;;;;8.64;100.00;94199.28;5004273;28;20058;-66
2023/08/08 00:42:38;;;;;;;4.80;2.97;;;;;;;8.55;100.00;94198.91;5000404;28;20053;-62
2023/08/08 00:45:05;;;;;;;4.93;3.00;;;;;;;8.56;100.00;94189.56;5009151;28;20050;-67
2023/08/08 00:47:33;;;;;;;5.90;2.70;;;;;;;8.53;100.00;94191.13;5008992;28;20042;-65
2023/08/08 00:50:02;;;;;;;7.15;2.88;;;;;;;8.44;100.00;94190.75;5008328;28;20038;-65
2023/08/08 00:52:30;;;;;;;4.97;2.60;;;;;;;8.41;100.00;94197.03;5008801;28;20058;-67
2023/08/08 00:54:57;;;;;;;5.05;2.80;;;;;;;8.29;100.00;94183.72;5008197;28;20040;-65
2023/08/08 00:57:24;;;;;;;5.33;2.50;;;;;;;8.35;100.00;94190.34;5008927;28;20483;-65
2023/08/08 00:59:51;;;;;;;5.25;3.20;;;;;;;8.30;100.00;94185.28;5008216;28;20402;-64
2023/08/08 01:02:17;;;;;;;5.68;3.45;;;;;;;8.28;100.00;94193.09;5008719;28;20054;-63
2023/08/08 01:04:45;;;;;;;7.35;3.58;;;;;;;8.24;100.00;94184.13;5007947;28;20045;-66
2023/08/08 01:07:32;;;;;;;13.63;5.78;;;;;;;8.07;100.00;94183.78;5007221;28;20061;-64
2023/08/08 01:10:07;;;;;;;15.73;7.13;;;;;;;8.02;100.00;94183.38;4988343;28;20053;-65
2023/08/08 01:12:52;;;;;;;34.85;16.27;;;;;;;7.94;100.00;94177.16;5008565;28;20163;-65
2023/08/08 01:15:20;;;;;;;27.13;12.77;;;;;;;7.87;100.00;94177.94;5003498;28;20735;-65
2023/08/08 01:17:48;;;;;;;26.88;12.18;;;;;;;7.88;100.00;94184.94;5007740;28;20123;-66
2023/08/08 01:20:16;;;;;;;16.25;7.97;;;;;;;7.82;100.00;94180.28;5008523;28;20077;-66
2023/08/08 01:23:11;;;;;;;8.43;4.73;;;;;;;7.77;100.00;94176.78;5007769;28;20077;-65
2023/08/08 01:25:40;;;;;;;19.27;10.20;;;;;;;7.76;100.00;94188.84;5006946;28;20052;-64
2023/08/08 01:28:07;;;;;;;11.95;6.30;;;;;;;7.77;100.00;94181.47;5007344;28;20447;-64
2023/08/08 01:30:34;;;;;;;7.43;3.75;;;;;;;7.74;100.00;94168.56;5008351;28;20038;-64
2023/08/08 01:33:01;;;;;;;8.45;4.05;;;;;;;7.71;100.00;94174.84;4998307;28;20042;-66
2023/08/08 01:35:31;;;;;;;10.10;4.77;;;;;;;7.60;100.00;94170.13;4988899;28;20050;-64
2023/08/08 01:38:07;;;;;;;9.60;4.00;;;;;;;7.58;100.00;94169.72;5006785;28;20045;-65
2023/08/08 01:40:35;;;;;;;9.70;4.72;;;;;;;7.60;100.00;94172.84;5008164;28;20056;-64
2023/08/08 01:43:04;;;;;;;6.43;3.90;;;;;;;7.59;100.00;94170.53;5007723;28;20046;-65
2023/08/08 01:45:30;;;;;;;4.80;2.78;;;;;;;7.52;100.00;94175.97;5006885;28;20061;-64
2023/08/08 01:47:57;;;;;;;10.47;5.70;;;;;;;7.54;100.00;94166.22;5007718;28;20045;-65
2023/08/08 01:50:25;;;;;;;7.65;3.90;;;;;;;7.55;100.00;94164.28;5011954;28;20041;-66
2023/08/08 01:52:52;;;;;;;6.00;3.00;;;;;;;7.36;100.00;94158.06;5011257;28;20046;-65
2023/08/08 01:55:19;;;;;;;5.60;2.97;;;;;;;7.34;100.00;94165.03;5011575;28;20288;-63
2023/08/08 01:57:45;;;;;;;6.55;2.97;;;;;;;7.36;100.00;94158.06;5010083;28;20103;-66
2023/08/08 02:00:12;;;;;;;4.60;2.60;;;;;;;7.35;100.00;94167.41;5026827;28;20115;-64
2023/08/08 02:02:40;;;;;;;5.63;2.72;;;;;;;7.33;100.00;94168.97;5010933;28;20075;-64
2023/08/08 02:05:07;;;;;;;5.60;2.88;;;;;;;7.35;100.00;94161.16;5011705;28;20069;-64
2023/08/08 02:07:33;;;;;;;5.00;2.78;;;;;;;7.35;100.00;94163.88;5011707;28;20069;-64
2023/08/08 02:10:00;;;;;;;4.90;3.08;;;;;;;7.34;100.00;94159.59;5008022;28;20096;-63
2023/08/08 02:12:29;;;;;;;5.50;2.90;;;;;;;7.24;100.00;94160.34;5001680;28;20521;-65
2023/08/08 02:14:57;;;;;;;5.10;2.80;;;;;;;7.30;100.00;94162.31;5010995;28;20087;-63
2023/08/08 02:17:26;;;;;;;5.50;3.30;;;;;;;7.33;100.00;94169.72;5011537;28;20442;-65
2023/08/08 02:19:53;;;;;;;4.47;2.70;;;;;;;7.33;100.00;94164.28;5010894;28;20403;-65
2023/08/08 02:22:19;;;;;;;5.20;2.90;;;;;;;7.27;100.00;94165.06;5011313;28;20060;-64
2023/08/08 02:24:46;;;;;;;5.73;2.97;;;;;;;7.28;100.00;94169.34;5009730;28;20050;-64
2023/08/08 02:27:14;;;;;;;4.70;2.60;;;;;;;7.25;100.00;94161.94;5011264;28;20046;-66
2023/08/08 02:29:40;;;;;;;5.28;2.55;;;;;;;7.20;100.00;94161.16;5010914;28;20084;-64
2023/08/08 02:32:07;;;;;;;5.65;3.40;;;;;;;7.18;100.00;94165.41;5009042;28;20053;-64
2023/08/08 02:34:34;;;;;;;6.35;3.10;;;;;;;7.20;100.00;94165.81;4991407;28;20412;-65
2023/08/08 02:37:01;;;;;;;7.47;3.17;;;;;;;7.28;100.00;94163.88;5001491;28;20674;-64
2023/08/08 02:39:27;;;;;;;5.03;3.17;;;;;;;7.32;100.00;94170.13;5011192;28;20060;-66
2023/08/08 02:41:54;;;;;;;5.28;2.75;;;;;;;7.35;100.00;94172.84;5010420;28;20365;-66
2023/08/08 02:44:22;;;;;;;5.28;2.70;;;;;;;7.39;100.00;94167.41;5011024;28;20041;-64
2023/08/08 02:46:49;;;;;;;5.43;3.10;;;;;;;7.44;100.00;94169.72;5010635;28;20038;-64
2023/08/08 02:49:15;;;;;;;6.30;3.07;;;;;;;7.50;100.00;94173.63;5010805;28;20107;-66
2023/08/08 02:51:42;;;;;;;5.68;2.85;;;;;;;7.52;100.00;94168.56;5009138;28;20038;-63
2023/08/08 02:54:09;;;;;;;4.97;2.90;;;;;;;7.52;100.00;94162.31;5006110;28;20034;-64
2023/08/08 02:56:36;;;;;;;4.93;2.90;;;;;;;7.42;100.00;94165.84;5010211;28;20418;-63
2023/08/08 02:59:02;;;;;;;4.88;2.80;;;;;;;7.47;100.00;94160.78;4998007;28;20043;-65
2023/08/08 03:01:29;;;;;;;4.87;3.30;;;;;;;7.38;100.00;94155.72;5007967;28;20209;-64
2023/08/08 03:03:56;;;;;;;6.40;2.90;;;;;;;7.45;100.00;94154.94;5009971;28;20076;-63
2023/08/08 03:06:23;;;;;;;5.80;2.90;;;;;;;7.48;100.00;94156.09;5010477;28;20044;-64
2023/08/08 03:08:49;;;;;;;5.32;3.08;;;;;;;7.49;100.00;94147.50;5010076;28;20578;-65
2023/08/08 03:11:16;;;;;;;5.82;2.97;;;;;;;7.45;100.00;94154.94;5008958;28;20077;-66
2023/08/08 03:13:43;;;;;;;5.97;3.00;;;;;;;7.42;100.00;94142.03;5006170;28;20052;-67
2023/08/08 03:16:09;;;;;;;4.70;2.80;;;;;;;7.42;100.00;94142.03;5010314;28;20054;-65
2023/08/08 03:18:36;;;;;;;6.28;3.20;;;;;;;7.34;100.00;94143.22;5010098;28;20087;-64
2023/08/08 03:21:03;;;;;;;5.75;3.17;;;;;;;7.21;100.00;94145.53;5009286;28;20859;-67
2023/08/08 03:23:31;;;;;;;6.07;3.42;;;;;;;7.19;100.00;94140.47;5009869;28;20054;-65
2023/08/08 03:25:57;;;;;;;4.90;3.00;;;;;;;7.25;100.00;94140.09;5024759;28;20060;-64
2023/08/08 03:28:24;;;;;;;5.47;3.00;;;;;;;7.26;100.00;94147.88;5010231;28;20552;-64
2023/08/08 03:30:51;;;;;;;5.38;3.00;;;;;;;7.26;100.00;94139.69;5009752;28;20048;-65
2023/08/08 03:33:18;;;;;;;5.03;2.90;;;;;;;7.29;100.00;94147.09;4999378;28;20038;-64
2023/08/08 03:35:44;;;;;;;4.95;3.05;;;;;;;7.33;100.00;94147.13;4992419;28;20081;-64
2023/08/08 03:38:11;;;;;;;5.97;3.30;;;;;;;7.41;100.00;94151.41;5008651;28;20057;-66
2023/08/08 03:40:38;;;;;;;6.32;2.75;;;;;;;7.46;100.00;94145.53;5009628;28;20038;-61
2023/08/08 03:43:05;;;;;;;5.72;3.13;;;;;;;7.45;100.00;94152.19;5010062;28;20048;-64
2023/08/08 03:45:32;;;;;;;5.07;3.00;;;;;;;7.43;100.00;94145.56;5009921;28;20045;-64
2023/08/08 03:47:59;;;;;;;4.90;2.80;;;;;;;7.53;100.00;94152.97;5009209;28;20052;-64
2023/08/08 03:50:26;;;;;;;4.70;3.07;;;;;;;7.59;100.00;94146.72;5009849;28;20052;-64
2023/08/08 03:52:53;;;;;;;5.15;2.78;;;;;;;7.63;100.00;94149.47;5009056;28;20041;-64
2023/08/08 03:55:19;;;;;;;5.25;3.00;;;;;;;7.67;100.00;94152.19;5009933;28;20060;-66
2023/08/08 03:57:46;;;;;;;5.70;2.70;;;;;;;7.67;100.00;94154.94;5024396;28;20033;-64
2023/08/08 04:00:13;;;;;;;5.13;3.10;;;;;;;7.65;100.00;94143.63;5008334;28;20041;-64
2023/08/08 04:02:40;;;;;;;6.03;2.90;;;;;;;7.72;100.00;94149.06;5009173;28;20669;-64
2023/08/08 04:05:07;;;;;;;6.18;2.92;;;;;;;7.73;100.00;94153.38;5009298;28;20148;-64
2023/08/08 04:07:34;;;;;;;5.93;3.28;;;;;;;7.63;100.00;94163.13;5009481;28;20064;-64
2023/08/08 04:10:01;;;;;;;5.53;2.80;;;;;;;7.52;100.00;94157.63;5008635;28;20042;-64
2023/08/08 04:12:28;;;;;;;6.55;3.13;;;;;;;7.42;100.00;94165.84;5008135;28;20048;-65
2023/08/08 04:14:55;;;;;;;5.10;3.10;;;;;;;7.48;100.00;94173.25;4995874;28;20041;-64
2023/08/08 04:17:21;;;;;;;4.90;3.08;;;;;;;7.48;100.00;94170.50;5008998;28;20076;-65
2023/08/08 04:19:48;;;;;;;5.32;3.20;;;;;;;7.63;100.00;94171.31;5008656;28;20056;-64
2023/08/08 04:22:15;;;;;;;6.68;3.38;;;;;;;7.72;100.00;94168.19;5016384;28;20056;-66
2023/08/08 04:24:42;;;;;;;6.38;3.38;;;;;;;7.82;100.00;94164.66;5016784;28;20050;-64
2023/08/08 04:27:09;;;;;;;6.83;2.97;;;;;;;7.78;100.00;94172.09;5009001;28;20423;-64
2023/08/08 04:29:37;;;;;;;4.85;3.03;;;;;;;7.78;100.00;94172.84;5009128;28;20041;-64
2023/08/08 04:32:04;;;;;;;6.65;3.08;;;;;;;7.87;100.00;94171.69;4996214;28;20524;-64
2023/08/08 04:34:31;;;;;;;5.68;3.50;;;;;;;7.81;100.00;94168.59;4988765;28;20046;-67
2023/08/08 04:36:58;;;;;;;6.15;3.20;;;;;;;7.90;100.00;94171.69;4988939;28;20495;-64
2023/08/08 04:39:25;;;;;;;5.87;3.30;;;;;;;7.95;100.00;94173.25;5004057;28;20042;-64
2023/08/08 04:41:51;;;;;;;8.55;3.50;;;;;;;7.88;100.00;94170.53;4987650;28;20054;-66
2023/08/08 04:44:18;;;;;;;6.82;3.20;;;;;;;7.96;100.00;94169.34;4989356;28;20042;-66
2023/08/08 04:46:45;;;;;;;6.75;3.00;;;;;;;8.13;100.00;94167.72;4988965;28;20480;-65
2023/08/08 04:49:12;;;;;;;5.47;3.05;;;;;;;8.12;100.00;94166.19;4989191;28;20042;-65
2023/08/08 04:51:38;;;;;;;6.53;3.00;;;;;;;8.20;100.00;94173.97;4989015;28;20047;-65
2023/08/08 04:54:05;;;;;;;5.38;3.22;;;;;;;8.25;100.00;94170.09;4987792;28;20038;-65
2023/08/08 04:56:32;;;;;;;5.93;3.28;;;;;;;8.22;100.00;94170.09;4977093;28;20050;-65
2023/08/08 04:58:58;;;;;;;5.88;3.28;;;;;;;8.37;100.00;94163.38;4970844;28;20051;-65
2023/08/08 05:01:25;;;;;;;8.45;3.42;;;;;;;8.44;100.00;94162.63;4988667;28;20046;-66
2023/08/08 05:03:52;;;;;;;4.97;3.00;;;;;;;8.65;100.00;94170.75;4988575;28;20058;-65
2023/08/08 05:06:22;;;;;;;7.97;3.20;;;;;;;8.69;100.00;94155.13;4989288;28;20038;-65
2023/08/08 05:08:51;;;;;;;4.32;3.00;;;;;;;8.74;100.00;94151.97;4988632;28;20046;-65
2023/08/08 05:11:18;;;;;;;5.80;2.70;;;;;;;8.84;100.00;94158.56;4988948;28;20108;-66
2023/08/08 05:13:44;;;;;;;5.35;3.05;;;;;;;8.94;100.00;94146.78;4988330;28;20050;-65
2023/08/08 05:16:11;;;;;;;5.77;3.00;;;;;;;9.07;100.00;94160.78;4988969;28;20503;-65
2023/08/08 05:18:38;;;;;;;4.20;2.60;;;;;;;8.96;100.00;94149.91;4987361;28;20052;-63
2023/08/08 05:21:05;;;;;;;5.55;2.90;;;;;;;8.99;100.00;94156.53;4988993;28;20038;-65
2023/08/08 05:23:32;;;;;;;4.35;2.63;;;;;;;9.11;100.00;94156.06;4990138;28;20384;-66
2023/08/08 05:25:59;;;;;;;5.72;3.10;;;;;;;9.03;100.00;94149.06;4992508;28;20038;-65
2023/08/08 05:28:26;;;;;;;5.03;2.83;;;;;;;9.04;100.00;94161.59;4993016;28;20046;-65
2023/08/08 05:30:52;;;;;;;7.80;3.30;;;;;;;8.85;100.00;94160.09;4992450;28;20050;-64
2023/08/08 05:33:19;;;;;;;5.60;3.17;;;;;;;8.76;100.00;94157.03;4992496;28;20521;-65
2023/08/08 05:35:46;;;;;;;5.13;3.00;;;;;;;8.89;100.00;94160.88;4992360;28;20060;-66
2023/08/08 05:38:13;;;;;;;5.38;3.17;;;;;;;9.10;100.00;94157.25;4992885;28;20141;-65
2023/08/08 05:40:39;;;;;;;6.00;3.20;;;;;;;9.27;100.00;94163.78;4991974;28;20054;-65
2023/08/08 05:43:06;;;;;;;4.93;2.80;;;;;;;9.42;100.00;94156.28;4992508;28;20061;-67
2023/08/08 05:45:33;;;;;;;5.32;3.38;;;;;;;9.47;100.00;94149.59;4992539;28;20046;-66
2023/08/08 05:48:00;;;;;;;4.70;3.00;;;;;;;9.47;100.00;94153.09;4991917;28;20042;-64
2023/08/08 05:50:28;;;;;;;4.32;2.85;;;;;;;9.51;100.00;94159.31;4992208;28;20073;-66
2023/08/08 05:52:54;;;;;;;4.70;3.00;;;;;;;9.50;100.00;94157.78;4991922;28;20056;-65
2023/08/08 05:55:21;;;;;;;6.25;3.00;;;;;;;9.92;100.00;94158.63;4992208;28;20050;-65
2023/08/08 05:57:48;;;;;;;4.70;3.00;;;;;;;9.99;100.00;94147.56;4991733;28;20053;-65
2023/08/08 06:00:15;;;;;;;7.40;2.95;;;;;;;10.31;100.00;94154.75;5000865;28;20068;-65
2023/08/08 06:02:42;;;;;;;4.75;3.05;;;;;;;10.40;100.00;94146.00;4991665;28;20056;-66
2023/08/08 06:05:10;;;;;;;5.67;2.63;;;;;;;11.59;100.00;94137.78;4992057;28;20081;-65
2023/08/08 06:07:37;;;;;;;4.45;2.60;;;;;;;13.98;100.00;94127.94;5006915;28;20419;-66
2023/08/08 06:10:05;;;;;;;4.75;2.40;;;;;;;15.96;100.00;94122.34;4991439;28;20909;-68
2023/08/08 06:12:32;;;;;;;5.68;2.42;;;;;;;17.76;100.00;94122.97;4991959;28;20046;-67
2023/08/08 06:14:58;;;;;;;4.70;2.40;;;;;;;18.72;98.42;94123.03;4986663;28;20050;-67
2023/08/08 06:17:25;;;;;;;4.60;2.10;;;;;;;18.67;95.58;94118.09;4987905;28;20121;-66
2023/08/08 06:19:54;;;;;;;3.40;2.15;;;;;;;19.21;89.36;94118.50;4991428;28;20038;-67
2023/08/08 06:22:21;;;;;;;4.75;2.28;;;;;;;17.91;98.77;94119.69;4991622;28;20061;-67
2023/08/08 06:24:50;;;;;;;4.75;2.30;;;;;;;19.18;90.88;94113.13;4991382;28;20361;-66
2023/08/08 06:27:16;;;;;;;5.57;2.50;;;;;;;20.92;80.93;94113.47;4991581;28;20389;-69
2023/08/08 06:29:43;;;;;;;6.30;3.43;;;;;;;22.34;71.41;94114.56;4991020;28;20047;-67
2023/08/08 06:32:10;;;;;;;3.90;2.42;;;;;;;21.18;72.56;94113.69;4989880;28;20423;-65
2023/08/08 06:34:37;;;;;;;6.40;2.38;;;;;;;21.10;76.45;94120.91;4990189;28;20054;-67
2023/08/08 06:37:04;;;;;;;5.40;2.15;;;;;;;21.40;72.54;94113.31;4990917;28;20031;-66
2023/08/08 06:39:31;;;;;;;4.65;2.30;;;;;;;20.18;80.79;94121.56;4991586;28;20571;-66
2023/08/08 06:41:58;;;;;;;3.97;2.00;;;;;;;21.98;74.05;94107.41;4995354;28;20116;-67
2023/08/08 06:44:25;;;;;;;4.50;2.05;;;;;;;22.22;71.26;94112.84;4983686;28;20056;-67
2023/08/08 06:46:52;;;;;;;4.75;1.98;;;;;;;23.29;65.23;94111.34;4987134;28;20042;-68
2023/08/08 06:49:19;;;;;;;4.07;1.98;;;;;;;22.57;67.72;94106.44;4982121;28;20532;-66
2023/08/08 06:51:45;;;;;;;4.40;2.00;;;;;;;21.11;71.44;94108.50;4990657;28;20053;-67
2023/08/08 06:54:12;;;;;;;4.13;2.10;;;;;;;20.30;81.29;94110.22;4990960;28;20403;-66
2023/08/08 06:56:39;;;;;;;4.55;2.10;;;;;;;19.85;89.32;94111.22;4993391;28;20054;-65
2023/08/08 06:59:06;;;;;;;3.33;1.95;;;;;;;23.10;72.34;94100.47;4982456;28;20049;-65
2023/08/08 07:01:33;;;;;;;4.82;2.60;;;;;;;23.92;64.36;94097.41;4986654;28;20434;-65
2023/08/08 07:04:00;;;;;;;6.70;3.10;;;;;;;23.44;62.88;94098.00;4970976;28;20049;-66
2023/08/08 07:06:27;;;;;;;5.33;2.90;;;;;;;23.10;61.05;94102.50;4971756;28;20054;-66
2023/08/08 07:08:54;;;;;;;3.10;2.00;;;;;;;22.89;59.38;94096.16;4986606;28;20046;-65
2023/08/08 07:11:21;;;;;;;3.33;2.03;;;;;;;22.18;62.90;94098.31;4989007;28;20166;-70
2023/08/08 07:13:48;;;;;;;3.17;1.80;;;;;;;22.19;63.47;94097.78;5001344;28;20058;-69
2023/08/08 07:16:15;;;;;;;3.45;1.63;;;;;;;23.67;54.71;94090.53;4986139;28;20104;-68
2023/08/08 07:18:42;;;;;;;2.93;1.50;;;;;;;24.15;55.16;94094.75;4978948;28;20038;-67
2023/08/08 07:21:09;;;;;;;2.50;1.30;;;;;;;25.62;45.75;94090.41;4989975;28;20050;-66
2023/08/08 07:23:36;;;;;;;3.55;1.25;;;;;;;23.47;53.11;94085.78;4983415;28;20042;-67
2023/08/08 07:26:02;;;;;;;3.55;1.38;;;;;;;26.19;49.28;94084.78;4985301;28;20074;-66
2023/08/08 07:28:29;;;;;;;3.03;1.52;;;;;;;27.76;43.15;94086.09;4991022;28;20042;-68
2023/08/08 07:30:56;;;;;;;2.30;1.20;;;;;;;25.97;43.98;94086.34;4990146;28;20489;-66
2023/08/08 07:33:22;;;;;;;2.47;1.40;;;;;;;25.06;46.56;94076.28;4990375;28;20084;-67
2023/08/08 07:35:49;;;;;;;3.15;1.50;;;;;;;26.10;41.82;94083.00;4990172;28;20422;-66
2023/08/08 07:38:16;;;;;;;4.78;1.67;;;;;;;27.78;40.23;94082.75;4990229;28;20118;-67
2023/08/08 07:40:43;;;;;;;2.92;1.63;;;;;;;26.98;39.48;94082.47;4990163;28;20058;-66
2023/08/08 07:43:10;;;;;;;5.67;3.70;;;;;;;25.66;42.45;94078.94;4990255;28;20069;-68
2023/08/08 07:45:37;;;;;;;2.70;1.70;;;;;;;24.92;42.50;94072.41;4989434;28;20145;-66
2023/08/08 07:48:04;;;;;;;3.85;1.60;;;;;;;27.38;39.91;94073.81;5008997;28;20616;-67
2023/08/08 07:50:32;;;;;;;2.58;1.38;;;;;;;30.25;34.82;94073.22;5009878;28;20236;-68
2023/08/08 07:52:58;;;;;;;3.20;1.42;;;;;;;31.70;32.01;94075.72;5009422;28;20056;-66
2023/08/08 07:55:25;;;;;;;2.67;1.60;;;;;;;30.05;32.04;94074.59;5009871;28;20540;-67
2023/08/08 07:57:52;;;;;;;3.70;1.80;;;;;;;29.35;33.59;94082.38;5009517;28;20046;-66
2023/08/08 08:00:20;;;;;;;2.88;1.60;;;;;;;29.22;34.04;94083.81;5009528;28;20360;-67
2023/08/08 08:02:46;;;;;;;3.20;1.65;;;;;;;31.51;31.21;94072.28;5009229;28;20057;-67
2023/08/08 08:05:13;;;;;;;2.95;1.40;;;;;;;31.09;29.74;94072.16;5009917;28;20503;-66
2023/08/08 08:07:40;;;;;;;2.83;1.50;;;;;;;30.63;29.13;94070.22;5009283;28;20284;-67
2023/08/08 08:10:09;;;;;;;3.30;1.67;;;;;;;29.41;30.84;94072.50;5009370;28;20045;-66
2023/08/08 08:12:36;;;;;;;3.25;1.33;;;;;;;28.51;32.35;94067.97;5009442;28;20038;-66
2023/08/08 08:15:04;;;;;;;2.92;1.55;;;;;;;27.19;34.10;94065.22;5008483;28;20561;-65
2023/08/08 08:17:31;;;;;;;2.83;1.60;;;;;;;28.07;32.68;94064.31;5009002;28;20464;-68
2023/08/08 08:19:58;;;;;;;4.77;1.70;;;;;;;27.28;33.72;94064.91;5008778;28;20049;-65
2023/08/08 08:22:25;;;;;;;3.42;2.05;;;;;;;27.25;33.89;94055.47;5008687;28;20057;-67
2023/08/08 08:24:52;;;;;;;3.08;1.60;;;;;;;26.38;34.80;94057.63;4998801;28;20046;-65
2023/08/08 08:27:18;;;;;;;5.00;1.75;;;;;;;25.15;37.40;94053.53;4984042;28;20057;-67
2023/08/08 08:29:45;;;;;;;4.20;1.60;;;;;;;26.06;36.34;94055.16;4973596;28;20043;-66
2023/08/08 08:32:12;;;;;;;4.40;1.70;;;;;;;26.80;36.28;94055.69;4997041;28;20060;-65
2023/08/08 08:34:39;;;;;;;2.75;1.70;;;;;;;26.59;36.19;94051.69;4988475;28;20128;-63
2023/08/08 08:37:05;;;;;;;3.60;1.80;;;;;;;27.13;35.53;94048.34;4989029;28;20472;-65
2023/08/08 08:39:32;;;;;;;2.72;1.63;;;;;;;29.95;31.89;94050.84;4989395;28;20450;-66
2023/08/08 08:42:03;;;;;;;2.75;1.50;;;;;;;29.99;30.33;94053.38;4971613;28;20050;-65
2023/08/08 08:44:31;;;;;;;2.60;1.50;;;;;;;29.88;30.73;94040.16;4989373;28;20104;-66
2023/08/08 08:47:01;;;;;;;3.33;1.70;;;;;;;27.91;32.39;94045.47;4988847;28;20093;-66
2023/08/08 08:49:31;;;;;;;3.70;1.50;;;;;;;27.67;33.28;94044.91;4989326;28;20097;-66
2023/08/08 08:52:00;;;;;;;3.17;1.70;;;;;;;27.99;33.91;94052.06;4988593;28;20047;-66
2023/08/08 08:54:32;;;;;;;2.92;1.67;;;;;;;27.58;33.87;94045.22;4987731;28;21881;-66
2023/08/08 08:56:59;;;;;;;2.70;1.50;;;;;;;28.63;32.44;94046.81;5002401;28;20548;-67
2023/08/08 08:59:26;;;;;;;4.03;1.63;;;;;;;30.44;31.49;94041.25;4989146;28;20043;-68
2023/08/08 09:01:53;;;;;;;3.05;1.60;;;;;;;30.83;29.06;94034.03;4988639;28;20038;-66
2023/08/08 09:04:21;;;;;;;2.85;1.50;;;;;;;30.96;29.37;94033.28;4989338;28;20057;-66
2023/08/08 09:06:49;;;;;;;3.28;1.33;;;;;;;31.02;28.58;94036.75;4988746;28;20046;-65
2023/08/08 09:09:17;;;;;;;3.33;1.60;;;;;;;29.79;29.62;94030.03;4989001;28;20050;-66
2023/08/08 09:11:54;;;;;;;3.30;1.60;;;;;;;29.61;30.69;94025.91;4988247;28;20402;-68
2023/08/08 09:14:23;;;;;;;3.00;1.80;;;;;;;28.75;32.11;94033.28;4981806;28;20064;-65
2023/08/08 09:16:53;;;;;;;4.47;1.60;;;;;;;28.52;32.45;94038.47;4988353;28;20045;-66
2023/08/08 09:19:21;;;;;;;3.17;1.63;;;;;;;27.37;31.88;94039.25;4988792;28;20047;-67
2023/08/08 09:21:48;;;;;;;2.83;1.60;;;;;;;27.31;32.48;94032.88;4982480;28;20035;-65
2023/08/08 09:24:15;;;;;;;3.80;1.80;;;;;;;28.47;28.89;94027.97;4981712;28;20046;-66
2023/08/08 09:26:43;;;;;;;3.75;1.40;;;;;;;29.04;29.07;94037.28;4988100;28;20049;-66
2023/08/08 09:29:14;;;;;;;3.20;1.40;;;;;;;26.27;34.50;94035.13;5003288;28;20051;-68
2023/08/08 09:31:41;;;;;;;3.05;1.60;;;;;;;24.49;36.84;94036.00;4975303;28;20050;-64
2023/08/08 09:34:08;;;;;;;2.80;1.70;;;;;;;24.13;37.77;94041.97;4982969;28;20051;-65
2023/08/08 09:36:35;;;;;;;3.17;1.70;;;;;;;24.09;39.64;94040.66;4981942;28;20034;-64
2023/08/08 09:39:02;;;;;;;4.45;1.77;;;;;;;23.83;38.96;94035.16;4988129;28;20050;-66
2023/08/08 09:41:29;;;;;;;5.00;1.90;;;;;;;25.83;36.55;94031.13;4988830;28;20423;-65
2023/08/08 09:43:56;;;;;;;2.67;1.35;;;;;;;26.77;33.93;94022.94;4988176;28;20054;-65
2023/08/08 09:46:23;;;;;;;4.00;1.70;;;;;;;24.89;36.74;94023.66;4988532;28;20058;-64
2023/08/08 09:48:50;;;;;;;3.60;1.50;;;;;;;24.19;37.80;94027.22;4988397;28;20031;-65
2023/08/08 09:51:17;;;;;;;3.40;1.63;;;;;;;24.71;37.47;94029.75;4988388;28;20111;-66
2023/08/08 09:53:46;;;;;;;3.72;1.77;;;;;;;24.62;38.27;94025.09;4987913;28;20201;-65
2023/08/08 09:56:14;;;;;;;3.47;1.70;;;;;;;23.95;38.98;94033.97;4971442;28;20050;-64
2023/08/08 09:58:42;;;;;;;2.87;1.70;;;;;;;25.18;38.71;94021.66;4988090;28;20438;-64
2023/08/08 10:01:12;;;;;;;3.58;1.60;;;;;;;27.36;34.89;94026.44;4988441;28;20046;-65
2023/08/08 10:03:42;;;;;;;3.38;1.60;;;;;;;29.16;32.54;94025.88;4988089;28;20046;-67
2023/08/08 10:06:10;;;;;;;2.90;1.48;;;;;;;27.60;32.10;94017.28;4988372;28;20052;-66
2023/08/08 10:08:37;;;;;;;3.03;1.60;;;;;;;27.32;32.54;94023.13;4989732;28;20046;-65
2023/08/08 10:11:07;;;;;;;3.13;1.60;;;;;;;24.88;36.72;94022.13;5009382;28;20856;-65
2023/08/08 10:13:35;;;;;;;3.88;1.58;;;;;;;24.62;37.04;94025.09;5011063;28;20145;-64
2023/08/08 10:16:09;;;;;;;3.13;1.40;;;;;;;27.60;34.80;94022.91;5010883;28;20046;-66
2023/08/08 10:18:36;;;;;;;3.58;1.67;;;;;;;29.90;30.58;94014.16;5011505;28;20042;-65
2023/08/08 10:21:05;;;;;;;3.05;1.17;;;;;;;28.79;30.97;94004.75;5010923;28;20038;-67
2023/08/08 10:23:37;;;;;;;2.80;1.50;;;;;;;29.72;30.39;94005.22;5011270;28;20046;-65
2023/08/08 10:26:05;;;;;;;2.75;1.40;;;;;;;28.18;29.91;93996.47;4989707;28;20093;-66
2023/08/08 10:28:33;;;;;;;3.22;1.20;;;;;;;29.70;29.35;94002.13;4977845;28;20069;-65
2023/08/08 10:31:08;;;;;;;2.63;1.33;;;;;;;26.64;32.59;93995.38;4972450;28;20060;-64
2023/08/08 10:33:45;;;;;;;4.10;1.42;;;;;;;23.49;37.72;94004.84;4990102;28;20141;-64
2023/08/08 10:36:16;;;;;;;2.80;1.50;;;;;;;24.64;35.25;94007.78;5010018;28;20653;-67
2023/08/08 10:38:44;;;;;;;3.80;1.50;;;;;;;26.25;34.17;94010.34;5010331;28;20083;-64
2023/08/08 10:41:14;;;;;;;2.63;1.50;;;;;;;29.37;29.09;93983.66;5010812;28;20057;-66
2023/08/08 10:43:56;;;;;;;3.22;1.50;;;;;;;27.94;30.97;93999.31;5010395;28;20045;-65
2023/08/08 10:46:31;;;;;;;2.50;1.50;;;;;;;26.62;31.82;93997.16;5009713;28;20064;-66
2023/08/08 10:49:01;;;;;;;3.37;1.70;;;;;;;25.78;32.64;93996.13;5010584;28;20057;-64
2023/08/08 10:51:42;;;;;;;2.75;1.40;;;;;;;24.71;33.81;93994.03;5010824;28;20068;-64
2023/08/08 10:54:12;;;;;;;2.70;1.63;;;;;;;24.52;34.60;93998.53;4997433;28;20539;-64
2023/08/08 10:56:38;;;;;;;3.22;1.70;;;;;;;25.19;34.24;94003.50;4991036;28;20053;-63
2023/08/08 10:59:15;;;;;;;3.88;1.60;;;;;;;27.23;32.50;94001.69;4990921;28;20046;-69
2023/08/08 11:01:45;;;;;;;3.33;1.40;;;;;;;27.28;31.70;94000.88;4990484;28;20054;-65
2023/08/08 11:04:12;;;;;;;3.40;1.40;;;;;;;28.01;30.96;93993.84;4989797;28;20050;-66
2023/08/08 11:06:39;;;;;;;2.83;1.42;;;;;;;26.69;32.09;93999.44;4989139;28;20050;-64
2023/08/08 11:09:06;;;;;;;4.63;1.50;;;;;;;25.07;34.30;94002.75;4990778;28;20081;-65
2023/08/08 11:11:38;;;;;;;3.88;1.60;;;;;;;23.84;35.55;94005.84;4990685;28;20046;-66
2023/08/08 11:14:12;;;;;;;2.80;1.53;;;;;;;23.39;36.47;94006.28;4989719;28;20844;-65
2023/08/08 11:16:38;;;;;;;2.88;1.60;;;;;;;23.01;36.48;93996.28;4990238;28;20432;-64
2023/08/08 11:19:05;;;;;;;3.50;1.60;;;;;;;23.02;37.17;94006.22;4989417;28;20073;-64
2023/08/08 11:21:36;;;;;;;3.42;1.50;;;;;;;23.32;36.13;93989.94;4989478;28;20053;-67
2023/08/08 11:24:06;;;;;;;3.67;1.60;;;;;;;23.74;33.49;93991.25;5005648;28;20138;-64
2023/08/08 11:26:34;;;;;;;3.53;1.63;;;;;;;23.78;34.17;93982.63;4990634;28;20050;-64
2023/08/08 11:29:02;;;;;;;3.25;1.55;;;;;;;22.98;35.24;93984.06;4976749;28;20042;-66
2023/08/08 11:31:30;;;;;;;4.10;1.70;;;;;;;22.62;37.17;93994.63;4990450;28;20047;-66
2023/08/08 11:33:59;;;;;;;3.90;1.60;;;;;;;23.13;34.94;93989.53;4989849;28;20066;-65